Jubba F50 in Mogadishu on Jul 18th 2022, flipped over on landing after left wing separated

Last Update: July 19, 2022 / 18:55:55 GMT/Zulu time

Bookmark this article
Incident Facts

Date of incident
Jul 18, 2022

Classification
Accident

Aircraft Registration
5Y-JXN

Aircraft Type
Fokker 50

ICAO Type Designator
F50

Airport ICAO Code
HCMM

A Jubba Airways Fokker 50, registration 5Y-JXN performing a flight from Baidoa to Mogadishu (Somalia) with 36 people on board, flipped over on landing on Mogadishu's runway 05, leaving the left wing behind on the runway, the other wing tip fractured, the wing left behind burst into flames. The occupants were able to evacuate without injuries. The aircraft sustained substantial damage beyond repair.

Jubba Airways confirmed their aircraft 5Y-JXN suffered an accident while landing in Mogadishu at about 11:30L (08:30Z), all occupants were able to evacuate safely.

Somalia's Civil Aviation Authority reported the Jubba Airways Fokker 50 5Y-JXN crashed at the beginning of runway 05 at 11:28L today (Jul 18th 2022). The aircraft carried 36 people. All people on board survived the accident. An investigation has been opened, a preliminary report will be published in due time.

Due to the critical political situation in Somalia landings are conducted only on runway 05 and departures only on runway 23 (and accordingly, only instrument standard arrival routes to runway 05 and instrument standard departure routes from runway 23 are being published).

Metars:
HCMM 181000Z 21019KT 9999 BKN021 OVC080 26/21 Q1013=
HCMM 180900Z 19018KT 9999 SCT024 BKN080 28/23 Q1014=
HCMM 180800Z 20018KT 9999 SCT024 BKN080 28/23 Q1014=
HCMM 180700Z 22017KT 9999 BKN022 27/22 Q1015 RESHRA=
HCMM 180500Z 19012KT 9999 SCT020 BKN080 26/21 Q1014=
HCMM 180400Z 20015KT 9999 20015KT SCT017 BKN080 24/19 Q1014=
Incident Facts

Date of incident
Jul 18, 2022

Classification
Accident

Aircraft Registration
5Y-JXN

Aircraft Type
Fokker 50

ICAO Type Designator
F50

Airport ICAO Code
HCMM

This article is published under license from Avherald.com. © of text by Avherald.com.
Article source

You can read 2 more free articles without a subscription.

Subscribe now and continue reading without any limits!

Are you a subscriber? Login
Subscribe

Read unlimited articles and receive our daily update briefing. Gain better insights into what is happening in commercial aviation safety.

Free newsletter

Want to know more and stay ahead? Get our free weekly newsletter and join 5353 existing subscribers.

By subscribing, you accept our terms and conditions and confirm that you've read our privacy policy.

Send tip

Support AeroInside by sending a small tip amount.

Related articles

Newest articles

Subscribe today

Are you researching aviation incidents? Get access to AeroInside Insights, unlimited read access and receive the daily newsletter.

Pick your plan and subscribe

Partner

Blockaviation logo

A new way to document and demonstrate airworthiness compliance and aircraft value. Find out more.

Virtual Speech logo

ELITE Simulation Solutions is a leading global provider of Flight Simulation Training Devices, IFR training software as well as flight controls and related services. Find out more.

Get updates

Never miss an article from AeroInside. Subscribe to our free weekly newsletter and join 5353 existing subscribers.

By subscribing, you accept our terms and conditions and that you've read our privacy policy.

AeroInside Blog
Popular aircraft
Airbus A320
Boeing 737-800
Boeing 737-800 MAX
Popular airlines
American Airlines
United
Delta
Air Canada
Lufthansa
British Airways